createdAt,value
2023-03-24T00:01:19.633Z,44.39
2023-03-24T00:03:52.308Z,44.25
2023-03-24T00:06:22.834Z,44.38
2023-03-24T00:08:51.317Z,44.34
2023-03-24T00:11:21.465Z,44.23
2023-03-24T00:13:50.519Z,44.30
2023-03-24T00:16:22.058Z,44.35
2023-03-24T00:18:54.444Z,44.28
2023-03-24T00:21:24.645Z,44.33
2023-03-24T00:23:54.619Z,44.41
2023-03-24T00:26:25.443Z,44.27
2023-03-24T00:28:54.157Z,44.30
2023-03-24T00:31:22.448Z,44.24
2023-03-24T00:33:52.117Z,44.36
2023-03-24T00:36:22.241Z,44.38
2023-03-24T00:38:50.838Z,44.29
2023-03-24T00:41:20.270Z,44.23
2023-03-24T00:43:49.811Z,44.24
2023-03-24T00:46:28.719Z,44.24
2023-03-24T00:49:06.050Z,44.30
2023-03-24T00:51:36.324Z,44.42
2023-03-24T00:54:05.129Z,44.52
2023-03-24T00:56:34.876Z,44.28
2023-03-24T00:59:03.532Z,44.17
2023-03-24T01:01:35.578Z,44.32
2023-03-24T01:04:07.134Z,44.35
2023-03-24T01:06:37.728Z,44.44
2023-03-24T01:09:07.416Z,44.31
2023-03-24T01:11:40.085Z,44.25
2023-03-24T01:14:09.755Z,44.43
2023-03-24T01:16:38.802Z,44.48
2023-03-24T01:19:09.484Z,44.36
2023-03-24T01:21:38.656Z,44.30
2023-03-24T01:24:07.860Z,44.25
2023-03-24T01:26:36.667Z,44.24
2023-03-24T01:29:04.870Z,44.30
2023-03-24T01:31:33.345Z,44.30
2023-03-24T01:34:01.587Z,44.39
2023-03-24T01:36:31.630Z,44.35
2023-03-24T01:39:01.432Z,44.37
2023-03-24T01:41:34.094Z,44.30
2023-03-24T01:44:02.395Z,44.37
2023-03-24T01:46:33.463Z,44.39
2023-03-24T01:49:05.347Z,44.38
2023-03-24T01:51:37.811Z,44.34
2023-03-24T01:54:10.548Z,44.31
2023-03-24T01:56:42.661Z,44.31
2023-03-24T01:59:13.858Z,44.33
2023-03-24T02:01:42.233Z,44.34
2023-03-24T02:04:11.288Z,44.32
2023-03-24T02:06:44.154Z,44.27
2023-03-24T02:09:13.677Z,44.40
2023-03-24T02:11:43.072Z,44.34
2023-03-24T02:14:13.387Z,44.33
2023-03-24T02:16:59.811Z,44.33
2023-03-24T02:20:09.567Z,44.41
2023-03-24T02:23:28.282Z,44.38
2023-03-24T02:26:28.381Z,44.45
2023-03-24T02:29:08.619Z,44.49
2023-03-24T02:32:13.889Z,44.38
2023-03-24T02:35:17.674Z,44.41
2023-03-24T02:38:40.692Z,44.56
2023-03-24T02:41:19.161Z,44.48
2023-03-24T02:43:58.403Z,44.52
2023-03-24T02:46:34.579Z,44.46
2023-03-24T02:49:18.448Z,44.58
2023-03-24T02:51:53.610Z,44.53
2023-03-24T02:54:28.892Z,44.37
2023-03-24T02:57:05.796Z,44.41
2023-03-24T02:59:38.539Z,44.42
2023-03-24T03:02:10.591Z,44.48
2023-03-24T03:04:46.610Z,44.42
2023-03-24T03:07:17.035Z,44.47
2023-03-24T03:09:50.372Z,44.54
2023-03-24T03:12:21.937Z,44.47
2023-03-24T03:14:54.223Z,44.42
2023-03-24T03:17:30.847Z,44.42
2023-03-24T03:20:08.063Z,44.50
2023-03-24T03:22:43.187Z,44.38
2023-03-24T03:25:13.792Z,44.54
2023-03-24T03:27:46.983Z,44.56
2023-03-24T03:30:19.670Z,44.51
2023-03-24T03:32:54.679Z,44.46
2023-03-24T03:35:27.300Z,44.46
2023-03-24T03:38:04.342Z,44.39
2023-03-24T03:40:36.636Z,44.53
2023-03-24T03:43:07.562Z,44.50
2023-03-24T03:45:36.443Z,44.56
2023-03-24T03:48:04.859Z,44.57
2023-03-24T03:50:33.484Z,44.24
2023-03-24T03:53:02.454Z,44.43
2023-03-24T03:55:31.124Z,44.60
2023-03-24T03:57:59.644Z,44.57
2023-03-24T04:00:30.322Z,44.47
2023-03-24T04:03:19.458Z,44.61
2023-03-24T04:05:54.455Z,44.55
2023-03-24T04:08:29.936Z,44.55
2023-03-24T04:11:18.967Z,44.56
2023-03-24T04:14:00.057Z,44.50
2023-03-24T04:16:39.999Z,44.50
2023-03-24T04:19:24.751Z,44.59
2023-03-24T04:22:06.039Z,44.66
2023-03-24T04:24:44.338Z,44.58
2023-03-24T04:27:17.346Z,44.38
2023-03-24T04:29:55.595Z,44.52
2023-03-24T04:32:32.575Z,44.52
2023-03-24T04:35:04.735Z,44.51
2023-03-24T04:37:38.184Z,44.48
2023-03-24T04:40:11.235Z,44.53
2023-03-24T04:42:45.510Z,44.55
2023-03-24T04:45:14.797Z,44.47
2023-03-24T04:47:49.064Z,44.42
2023-03-24T04:50:31.195Z,44.64
2023-03-24T04:52:59.399Z,44.49
2023-03-24T04:55:55.491Z,44.68
2023-03-24T04:58:24.535Z,44.54
2023-03-24T05:00:53.241Z,44.48
2023-03-24T05:03:22.864Z,44.56
2023-03-24T05:05:53.295Z,44.54
2023-03-24T05:08:22.210Z,44.44
2023-03-24T05:10:50.264Z,44.46
2023-03-24T05:13:18.953Z,44.47
2023-03-24T05:15:47.338Z,44.47
2023-03-24T05:18:15.659Z,44.56
2023-03-24T05:20:45.124Z,44.52
2023-03-24T05:23:13.173Z,44.54
2023-03-24T05:25:41.334Z,44.48
2023-03-24T05:28:09.533Z,44.58
2023-03-24T05:30:37.648Z,44.56
2023-03-24T05:33:05.869Z,44.45
2023-03-24T05:35:34.047Z,44.51
2023-03-24T05:38:03.508Z,44.58
2023-03-24T05:40:31.571Z,44.67
2023-03-24T05:42:59.648Z,44.53
2023-03-24T05:45:29.572Z,44.58
2023-03-24T05:47:58.129Z,44.48
2023-03-24T05:50:26.303Z,44.58
2023-03-24T05:52:54.345Z,44.63
2023-03-24T05:55:23.837Z,44.48
2023-03-24T05:57:52.352Z,44.59
2023-03-24T06:00:23.441Z,44.52
2023-03-24T06:02:51.739Z,44.48
2023-03-24T06:05:20.490Z,44.68
2023-03-24T06:07:48.593Z,44.55
2023-03-24T06:10:18.426Z,44.68
2023-03-24T06:12:47.951Z,44.62
2023-03-24T06:15:17.654Z,44.68
2023-03-24T06:17:46.994Z,44.55
2023-03-24T06:20:18.162Z,44.53
2023-03-24T06:22:48.491Z,44.64
2023-03-24T06:25:20.340Z,44.53
2023-03-24T06:27:50.009Z,44.63
2023-03-24T06:30:19.474Z,44.64
2023-03-24T06:32:47.809Z,44.62
2023-03-24T06:35:17.189Z,44.58
2023-03-24T06:37:46.074Z,44.60
2023-03-24T06:40:16.467Z,44.68
2023-03-24T06:42:44.661Z,44.71
2023-03-24T06:45:14.334Z,44.81
2023-03-24T06:47:42.649Z,44.96
2023-03-24T06:50:11.708Z,44.87
2023-03-24T06:52:40.070Z,44.86
2023-03-24T06:55:09.514Z,44.91
2023-03-24T06:57:37.729Z,45.00
2023-03-24T07:00:08.770Z,45.05
2023-03-24T07:02:38.556Z,44.96
2023-03-24T07:05:09.113Z,45.00
2023-03-24T07:08:16.818Z,44.90
2023-03-24T07:10:26.639Z,45.02
2023-03-24T07:12:54.734Z,44.89
2023-03-24T07:15:23.039Z,44.98
2023-03-24T07:17:52.651Z,44.98
2023-03-24T07:20:21.609Z,45.00
2023-03-24T07:22:49.805Z,45.15
2023-03-24T07:25:20.078Z,45.05
2023-03-24T07:27:48.477Z,45.20
2023-03-24T07:30:19.136Z,45.18
2023-03-24T07:32:49.323Z,45.18
2023-03-24T07:35:19.319Z,45.29
2023-03-24T07:37:47.457Z,45.31
2023-03-24T07:40:16.232Z,45.08
2023-03-24T07:42:44.783Z,45.23
2023-03-24T07:45:14.240Z,45.27
2023-03-24T07:47:46.704Z,45.43
2023-03-24T07:50:15.753Z,45.36
2023-03-24T07:52:50.577Z,45.27
2023-03-24T07:55:19.114Z,45.17
2023-03-24T07:57:48.979Z,45.09
2023-03-24T08:00:19.763Z,45.13
2023-03-24T08:02:49.891Z,45.18
2023-03-24T08:05:19.629Z,45.30
2023-03-24T08:07:53.539Z,45.38
2023-03-24T08:10:24.185Z,45.39
2023-03-24T08:12:53.090Z,45.40
2023-03-24T08:15:21.483Z,45.37
2023-03-24T08:17:50.641Z,45.39
2023-03-24T08:20:21.359Z,45.32
2023-03-24T08:22:54.203Z,45.45
2023-03-24T08:25:24.125Z,45.30
2023-03-24T08:27:52.774Z,45.35
2023-03-24T08:30:22.800Z,45.34
2023-03-24T08:32:52.837Z,45.55
2023-03-24T08:35:23.828Z,45.34
2023-03-24T08:37:53.624Z,45.33
2023-03-24T08:40:24.479Z,45.38
2023-03-24T08:42:54.489Z,45.28
2023-03-24T08:45:27.509Z,45.40
2023-03-24T08:47:56.782Z,45.46
2023-03-24T08:50:28.193Z,45.39
2023-03-24T08:52:58.539Z,45.41
2023-03-24T08:55:27.154Z,45.45
2023-03-24T08:57:56.252Z,45.45
2023-03-24T09:00:24.847Z,45.48
2023-03-24T09:02:54.693Z,45.50
2023-03-24T09:05:40.735Z,45.47
2023-03-24T09:08:14.898Z,45.75
2023-03-24T09:10:46.616Z,45.56
2023-03-24T09:13:14.989Z,45.77
2023-03-24T09:15:48.018Z,45.74
2023-03-24T09:18:17.269Z,45.71
2023-03-24T09:20:46.385Z,45.81
2023-03-24T09:23:16.306Z,45.68
2023-03-24T09:25:44.362Z,45.70
2023-03-24T09:28:14.190Z,45.76
2023-03-24T09:30:42.316Z,45.69
2023-03-24T09:33:10.459Z,45.81
2023-03-24T09:35:38.536Z,45.67
2023-03-24T09:38:06.704Z,45.83
2023-03-24T09:40:40.563Z,45.82
2023-03-24T09:43:13.667Z,45.78
2023-03-24T09:45:51.213Z,45.73
2023-03-24T09:48:26.115Z,45.77
2023-03-24T09:50:58.823Z,45.72
2023-03-24T09:53:34.887Z,45.80
2023-03-24T09:56:12.260Z,45.77
2023-03-24T09:58:41.737Z,45.71
2023-03-24T10:01:15.661Z,45.85
2023-03-24T10:03:44.358Z,45.71
2023-03-24T10:06:21.900Z,45.77
2023-03-24T10:08:55.442Z,45.79
2023-03-24T10:11:33.429Z,46.03
2023-03-24T10:14:15.322Z,46.28
2023-03-24T10:16:51.002Z,45.87
2023-03-24T10:19:31.105Z,45.92
2023-03-24T10:22:07.099Z,45.98
2023-03-24T10:24:42.373Z,45.76
2023-03-24T10:27:17.690Z,45.84
2023-03-24T10:29:46.728Z,45.86
2023-03-24T10:32:22.182Z,45.80
2023-03-24T10:34:56.306Z,46.03
2023-03-24T10:37:24.492Z,45.85
2023-03-24T10:39:53.107Z,45.89
2023-03-24T10:42:26.543Z,45.91
2023-03-24T10:44:54.593Z,45.94
2023-03-24T10:47:27.621Z,46.02
2023-03-24T10:49:59.444Z,46.07
2023-03-24T10:52:28.581Z,46.03
2023-03-24T10:54:58.559Z,45.94
2023-03-24T10:57:29.193Z,45.96
2023-03-24T11:00:00.612Z,45.88
2023-03-24T11:02:31.920Z,45.93
2023-03-24T11:05:02.505Z,45.91
2023-03-24T11:07:35.386Z,45.90
2023-03-24T11:10:07.843Z,45.60
2023-03-24T11:12:39.558Z,45.91
2023-03-24T11:15:29.230Z,45.94
2023-03-24T11:17:59.255Z,45.78
2023-03-24T11:20:31.701Z,45.86
2023-03-24T11:23:05.683Z,45.79
2023-03-24T11:25:37.015Z,45.85
2023-03-24T11:28:09.922Z,45.81
2023-03-24T11:30:47.346Z,45.94
2023-03-24T11:33:35.354Z,45.84
2023-03-24T11:36:11.452Z,45.87
2023-03-24T11:38:40.900Z,45.91
2023-03-24T11:41:20.458Z,45.95
2023-03-24T11:43:49.911Z,45.81
2023-03-24T11:46:20.851Z,45.89
2023-03-24T11:48:52.661Z,45.90
2023-03-24T11:51:35.457Z,46.07
2023-03-24T11:54:07.036Z,45.77
2023-03-24T11:56:41.820Z,45.85
2023-03-24T11:59:22.849Z,45.93
2023-03-24T12:01:59.370Z,45.89
2023-03-24T12:04:39.550Z,45.99
2023-03-24T12:07:35.285Z,45.98
2023-03-24T12:10:15.523Z,45.93
2023-03-24T12:12:58.130Z,45.94
2023-03-24T12:15:41.325Z,46.01
2023-03-24T12:18:27.381Z,45.96
2023-03-24T12:21:02.545Z,45.66
2023-03-24T12:23:38.982Z,45.64
2023-03-24T12:26:16.788Z,45.84
2023-03-24T12:28:55.414Z,45.87
2023-03-24T12:31:47.782Z,45.95
2023-03-24T12:34:39.107Z,46.01
2023-03-24T12:37:14.611Z,45.91
2023-03-24T12:39:50.057Z,46.05
2023-03-24T12:42:20.459Z,45.90
2023-03-24T12:45:17.718Z,46.30
2023-03-24T12:48:12.907Z,46.18
2023-03-24T12:50:52.950Z,46.01
2023-03-24T12:53:36.618Z,46.08
2023-03-24T12:56:10.774Z,45.97
2023-03-24T12:58:45.139Z,46.06
2023-03-24T13:01:20.883Z,46.10
2023-03-24T13:03:55.905Z,46.07
2023-03-24T13:06:29.526Z,46.03
2023-03-24T13:09:09.059Z,46.19
2023-03-24T13:11:46.260Z,46.13
2023-03-24T13:14:20.372Z,46.11
2023-03-24T13:16:49.470Z,46.11
2023-03-24T13:19:24.237Z,46.09
2023-03-24T13:21:55.835Z,46.16
2023-03-24T13:24:26.178Z,46.13
2023-03-24T13:27:05.678Z,46.21
2023-03-24T13:30:11.326Z,46.52
2023-03-24T13:32:45.658Z,46.11
2023-03-24T13:35:25.430Z,46.21
2023-03-24T13:37:58.596Z,46.11
2023-03-24T13:40:29.104Z,46.15
2023-03-24T13:42:59.464Z,46.14
2023-03-24T13:45:40.320Z,46.18
2023-03-24T13:48:23.734Z,46.45
2023-03-24T13:50:57.636Z,46.24
2023-03-24T13:53:39.209Z,46.36
2023-03-24T13:56:10.307Z,46.15
2023-03-24T13:59:07.253Z,46.20
2023-03-24T14:01:37.982Z,46.01
2023-03-24T14:04:29.053Z,46.18
2023-03-24T14:07:00.156Z,45.97
2023-03-24T14:09:30.088Z,45.94
2023-03-24T14:12:25.001Z,46.12
2023-03-24T14:15:19.850Z,45.77
2023-03-24T14:17:50.995Z,45.68
2023-03-24T14:20:29.869Z,45.66
2023-03-24T14:22:59.520Z,45.62
2023-03-24T14:25:30.318Z,45.50
2023-03-24T14:28:26.848Z,45.44
2023-03-24T14:31:13.324Z,45.29
2023-03-24T14:33:45.602Z,45.43
2023-03-24T14:36:23.325Z,45.51
2023-03-24T14:38:53.414Z,45.45
2023-03-24T14:41:29.595Z,45.56
2023-03-24T14:44:00.243Z,45.48
2023-03-24T14:46:37.912Z,45.33
2023-03-24T14:49:14.824Z,45.40
2023-03-24T14:51:47.112Z,45.19
2023-03-24T14:54:19.056Z,45.43
2023-03-24T14:56:52.973Z,45.30
2023-03-24T14:59:34.663Z,45.22
2023-03-24T15:02:13.298Z,45.32
2023-03-24T15:04:41.387Z,45.39
2023-03-24T15:07:15.192Z,45.28
2023-03-24T15:09:51.216Z,45.30
2023-03-24T15:12:19.639Z,45.36
2023-03-24T15:14:47.811Z,45.29
2023-03-24T15:17:22.825Z,45.28
2023-03-24T15:19:52.754Z,45.26
2023-03-24T15:22:21.594Z,45.38
2023-03-24T15:24:53.090Z,45.32
2023-03-24T15:27:26.733Z,45.27
2023-03-24T15:29:57.736Z,45.24
2023-03-24T15:32:31.643Z,45.39
2023-03-24T15:35:05.775Z,45.33
2023-03-24T15:37:40.109Z,45.27
2023-03-24T15:40:36.267Z,45.12
2023-03-24T15:43:08.029Z,45.28
2023-03-24T15:45:38.944Z,45.33
2023-03-24T15:48:10.112Z,45.29
2023-03-24T15:50:40.532Z,45.29
2023-03-24T15:53:24.782Z,45.15
2023-03-24T15:56:08.753Z,45.24
2023-03-24T15:58:53.088Z,45.26
2023-03-24T16:01:31.459Z,45.16
2023-03-24T16:04:02.553Z,45.22
2023-03-24T16:06:35.342Z,45.26
2023-03-24T16:09:08.761Z,45.19
2023-03-24T16:11:38.198Z,45.11
2023-03-24T16:14:21.824Z,45.29
2023-03-24T16:16:50.275Z,45.04
2023-03-24T16:19:18.410Z,45.24
2023-03-24T16:21:46.513Z,45.11
2023-03-24T16:24:14.569Z,45.21
2023-03-24T16:26:44.747Z,45.16
2023-03-24T16:29:17.533Z,45.26
2023-03-24T16:31:49.219Z,45.25
2023-03-24T16:34:18.767Z,45.24
2023-03-24T16:36:47.032Z,45.10
2023-03-24T16:39:17.227Z,45.11
2023-03-24T16:41:47.551Z,45.02
2023-03-24T16:44:17.490Z,45.19
2023-03-24T16:46:47.226Z,45.10
2023-03-24T16:49:17.364Z,45.17
2023-03-24T16:51:46.177Z,45.18
2023-03-24T16:54:14.572Z,45.37
2023-03-24T16:56:42.693Z,45.02
2023-03-24T16:59:12.619Z,45.10
2023-03-24T17:01:41.775Z,44.99
2023-03-24T17:04:13.302Z,45.18
2023-03-24T17:06:43.117Z,45.05
2023-03-24T17:09:12.749Z,45.09
2023-03-24T17:11:43.012Z,45.11
2023-03-24T17:14:13.300Z,45.03
2023-03-24T17:19:13.095Z,45.08
2023-03-24T17:21:44.973Z,44.95
2023-03-24T17:24:13.873Z,45.01
2023-03-24T17:26:42.653Z,45.13
2023-03-24T17:29:13.486Z,44.99
2023-03-24T17:31:43.299Z,44.93
2023-03-24T17:34:21.506Z,44.98
2023-03-24T17:36:51.415Z,44.99
2023-03-24T17:39:21.205Z,44.98
2023-03-24T17:41:49.787Z,44.99
2023-03-24T17:44:19.275Z,45.05
2023-03-24T17:46:47.413Z,44.92
2023-03-24T17:49:15.611Z,44.99
2023-03-24T17:51:43.690Z,44.92
2023-03-24T17:54:11.928Z,45.00
2023-03-24T17:56:40.172Z,44.93
2023-03-24T17:59:08.347Z,44.99
2023-03-24T18:01:39.534Z,45.08
2023-03-24T18:04:08.007Z,45.03
2023-03-24T18:06:36.117Z,44.86
2023-03-24T18:09:04.420Z,44.91
2023-03-24T18:11:32.925Z,44.76
2023-03-24T18:14:01.038Z,44.86
2023-03-24T18:16:30.878Z,44.91
2023-03-24T18:19:01.860Z,44.87
2023-03-24T18:21:30.158Z,44.95
2023-03-24T18:23:58.651Z,44.98
2023-03-24T18:26:27.010Z,44.98
2023-03-24T18:28:55.644Z,44.74
2023-03-24T18:31:26.226Z,44.95
2023-03-24T18:33:55.752Z,44.88
2023-03-24T18:36:27.359Z,44.81
2023-03-24T18:38:59.961Z,44.88
2023-03-24T18:41:30.064Z,44.91
2023-03-24T18:43:59.758Z,45.00
2023-03-24T18:46:28.816Z,44.90
2023-03-24T18:48:57.217Z,44.84
2023-03-24T18:51:28.012Z,44.76
2023-03-24T18:53:56.131Z,44.84
2023-03-24T18:56:24.499Z,44.85
2023-03-24T18:58:53.189Z,44.87
2023-03-24T19:01:25.578Z,44.79
2023-03-24T19:03:54.438Z,44.85
2023-03-24T19:06:26.219Z,44.84
2023-03-24T19:08:55.892Z,44.82
2023-03-24T19:11:24.127Z,44.90
2023-03-24T19:13:52.268Z,44.64
2023-03-24T19:16:21.624Z,45.02
2023-03-24T19:18:50.766Z,44.66
2023-03-24T19:21:19.565Z,44.87
2023-03-24T19:23:49.376Z,44.85
2023-03-24T19:26:20.913Z,44.94
2023-03-24T19:28:49.150Z,44.71
2023-03-24T19:31:18.782Z,45.17
2023-03-24T19:33:47.949Z,44.80
2023-03-24T19:36:18.356Z,44.81
2023-03-24T19:38:46.476Z,44.78
2023-03-24T19:41:16.201Z,44.82
2023-03-24T19:43:45.674Z,44.78
2023-03-24T19:46:13.819Z,44.75
2023-03-24T19:48:41.919Z,44.74
2023-03-24T19:51:09.980Z,44.76
2023-03-24T19:53:38.176Z,44.66
2023-03-24T19:56:06.940Z,44.74
2023-03-24T19:58:35.050Z,44.70
2023-03-24T20:01:04.763Z,44.79
2023-03-24T20:03:33.140Z,44.71
2023-03-24T20:06:05.975Z,44.72
2023-03-24T20:08:34.026Z,44.83
2023-03-24T20:11:03.691Z,44.71
2023-03-24T20:13:31.817Z,44.81
2023-03-24T20:15:59.923Z,44.71
2023-03-24T20:18:29.428Z,44.68
2023-03-24T20:20:57.587Z,44.73
2023-03-24T20:23:25.748Z,44.79
2023-03-24T20:25:53.882Z,44.77
2023-03-24T20:28:21.939Z,44.78
2023-03-24T20:30:51.558Z,44.71
2023-03-24T20:33:19.784Z,44.72
2023-03-24T20:35:49.515Z,44.64
2023-03-24T20:38:17.853Z,44.63
2023-03-24T20:40:47.652Z,44.68
2023-03-24T20:43:16.864Z,44.60
2023-03-24T20:45:45.006Z,44.73
2023-03-24T20:48:13.110Z,44.66
2023-03-24T20:50:42.192Z,44.61
2023-03-24T20:53:11.708Z,44.64
2023-03-24T20:55:39.802Z,44.66
2023-03-24T20:58:08.556Z,44.48
2023-03-24T21:00:38.067Z,44.63
2023-03-24T21:03:06.326Z,44.68
2023-03-24T21:05:34.513Z,44.77
2023-03-24T21:08:02.684Z,44.57
2023-03-24T21:10:32.523Z,44.59
2023-03-24T21:13:00.638Z,44.49
2023-03-24T21:15:29.004Z,44.72
2023-03-24T21:17:57.273Z,44.63
2023-03-24T21:20:27.056Z,44.53
2023-03-24T21:22:55.801Z,44.58
2023-03-24T21:25:26.254Z,44.63
2023-03-24T21:27:56.428Z,44.68
2023-03-24T21:30:25.080Z,44.48
2023-03-24T21:32:55.145Z,44.60
2023-03-24T21:35:24.975Z,44.51
2023-03-24T21:37:54.012Z,44.49
2023-03-24T21:40:24.219Z,44.58
2023-03-24T21:42:53.841Z,44.62
2023-03-24T21:45:24.619Z,44.43
2023-03-24T21:47:54.699Z,44.59
2023-03-24T21:50:24.089Z,44.45
2023-03-24T21:52:54.012Z,44.47
2023-03-24T21:55:25.397Z,44.48
2023-03-24T21:57:54.001Z,44.46
2023-03-24T22:00:25.383Z,44.46
2023-03-24T22:02:58.357Z,44.53
2023-03-24T22:05:27.886Z,44.44
2023-03-24T22:07:56.223Z,44.58
2023-03-24T22:10:24.490Z,44.46
2023-03-24T22:12:54.040Z,44.38
2023-03-24T22:15:24.806Z,44.40
2023-03-24T22:17:53.017Z,44.42
2023-03-24T22:20:21.423Z,44.45
2023-03-24T22:22:49.613Z,44.58
2023-03-24T22:25:19.486Z,44.48
2023-03-24T22:27:50.027Z,44.35
2023-03-24T22:30:18.964Z,44.48
2023-03-24T22:32:48.546Z,44.43
2023-03-24T22:35:16.844Z,44.41
2023-03-24T22:37:44.983Z,44.53
2023-03-24T22:40:13.196Z,44.42
2023-03-24T22:42:41.301Z,44.48
2023-03-24T22:45:10.385Z,44.38
2023-03-24T22:47:38.489Z,44.35
2023-03-24T22:50:09.707Z,44.47
2023-03-24T22:52:37.804Z,44.46
2023-03-24T22:55:06.548Z,44.44
2023-03-24T22:57:34.789Z,44.56
2023-03-24T23:00:03.385Z,44.26
2023-03-24T23:02:31.630Z,44.46
2023-03-24T23:04:59.751Z,44.49
2023-03-24T23:07:29.715Z,44.50
2023-03-24T23:09:59.529Z,44.42
2023-03-24T23:12:27.909Z,44.51
2023-03-24T23:14:56.149Z,44.46
2023-03-24T23:17:25.448Z,44.39
2023-03-24T23:19:53.669Z,44.35
2023-03-24T23:22:22.536Z,44.34
2023-03-24T23:25:00.480Z,44.43
2023-03-24T23:27:34.516Z,44.48
2023-03-24T23:30:02.824Z,44.50
2023-03-24T23:32:33.561Z,44.44
2023-03-24T23:35:02.997Z,44.43
2023-03-24T23:37:32.238Z,44.34
2023-03-24T23:40:08.339Z,44.32
2023-03-24T23:42:37.461Z,44.48
2023-03-24T23:45:06.160Z,44.53
2023-03-24T23:47:35.051Z,44.36
2023-03-24T23:50:03.238Z,44.38
2023-03-24T23:52:31.337Z,44.40
2023-03-24T23:54:59.608Z,44.40
2023-03-24T23:57:29.407Z,44.40
2023-03-24T23:59:57.869Z,44.34
